Airport View

Enter AWOS ICAO identifier for current METAR.

ex. KFNL

KCAD 181155Z AUTO 12016G25KT 1SM SN OVC010 M06/M07 A2985 RMK AO2 T10641076

18 Jan 2020 12:05

Frequency: 128.325

Phone: 231-779-9536

Other Area AWOS: KTVC - KHTL - KRQB - KMBL

TAF KTVC 181132Z 1812/1912 13014G27KT 3/4SM -SN BLSN OVC011 WS020/15040KT FM181600 13013G26KT 1SM -SN OVC019 FM182000 18006KT 1SM -SN OVC008 FM182300 28009KT 2SM -SN OVC010 FM190100 28011G21KT 3SM -SN OVC011 FM191000 31013G22KT 1 1/2SM -SHSN OVC017